createdAt,value
2017-07-15T08:33:31.664Z,1019.065
2017-07-15T08:36:14.908Z,1019.057
2017-07-15T08:39:31.326Z,1019.063
2017-07-15T08:42:18.946Z,1019.073
2017-07-15T08:45:13.611Z,1019.082
2017-07-15T08:48:08.426Z,1019.116
2017-07-15T08:51:03.445Z,1019.143
2017-07-15T08:53:58.542Z,1019.116
2017-07-15T08:56:53.721Z,1019.080
2017-07-15T08:59:48.884Z,1019.155
2017-07-15T09:02:43.883Z,1019.199
2017-07-15T09:05:38.806Z,1019.223
2017-07-15T09:08:33.874Z,1019.238
2017-07-15T09:11:28.994Z,1019.227
2017-07-15T09:14:24.139Z,1019.251
2017-07-15T09:17:19.183Z,1019.254
2017-07-15T09:20:14.458Z,1019.271
2017-07-15T09:23:09.704Z,1019.293
2017-07-15T09:26:05.097Z,1019.279
2017-07-15T09:29:00.494Z,1019.264
2017-07-15T09:31:55.901Z,1019.321
2017-07-15T09:34:51.086Z,1019.335
2017-07-15T09:37:46.229Z,1019.319
2017-07-15T09:43:36.244Z,1019.336
2017-07-15T09:46:31.336Z,1019.361
2017-07-15T09:49:26.235Z,1019.399
2017-07-15T09:52:21.330Z,1019.355
2017-07-15T09:55:16.711Z,1019.325
2017-07-15T09:58:12.051Z,1019.358
2017-07-15T10:01:07.518Z,1019.358
2017-07-15T10:04:02.847Z,1019.339
2017-07-15T10:06:58.036Z,1019.323
2017-07-15T10:09:52.997Z,1019.395
2017-07-15T10:12:48.000Z,1019.434
2017-07-15T10:15:43.038Z,1019.476
2017-07-15T10:18:37.969Z,1019.458
2017-07-15T10:21:33.134Z,1019.466
2017-07-15T10:24:28.560Z,1019.531
2017-07-15T10:27:24.102Z,1019.541
2017-07-15T10:30:19.757Z,1019.597
2017-07-15T10:33:15.401Z,1019.596
2017-07-15T10:36:10.767Z,1019.630
2017-07-15T10:39:05.884Z,1019.647
2017-07-15T10:42:01.028Z,1019.737
2017-07-15T10:44:55.973Z,1019.759
2017-07-15T10:47:51.082Z,1019.731
2017-07-15T10:50:46.217Z,1019.718
2017-07-15T10:53:41.365Z,1019.706
2017-07-15T10:56:58.913Z,1019.719
2017-07-15T10:59:47.178Z,1019.725
2017-07-15T11:05:08.992Z,1019.794
2017-07-15T11:07:53.302Z,1019.851
2017-07-15T11:10:47.726Z,1019.852
2017-07-15T11:13:42.630Z,1019.773
2017-07-15T11:17:00.439Z,1019.690
2017-07-15T11:20:45.426Z,1019.744
2017-07-15T11:24:16.784Z,1019.820
2017-07-15T11:27:03.174Z,1019.852
2017-07-15T11:29:58.195Z,1019.859
2017-07-15T11:32:53.294Z,1019.856
2017-07-15T11:35:59.828Z,1019.868
2017-07-15T11:39:01.616Z,1019.884
2017-07-15T11:41:52.166Z,1019.888
2017-07-15T11:46:40.239Z,1019.947
2017-07-15T11:49:25.366Z,1019.910
2017-07-15T11:52:20.197Z,1019.890
2017-07-15T11:55:15.266Z,1019.857
2017-07-15T11:58:10.379Z,1019.880
2017-07-15T12:02:13.388Z,1019.894
2017-07-15T12:06:06.964Z,1019.897
2017-07-15T12:08:52.631Z,1019.933
2017-07-15T12:13:17.888Z,1019.903
2017-07-15T12:23:12.472Z,1019.925
2017-07-15T12:28:50.905Z,1019.995
2017-07-15T12:31:45.634Z,1020.100
2017-07-15T12:34:40.700Z,1020.094
2017-07-15T12:37:35.811Z,1020.135
2017-07-15T12:40:31.094Z,1020.165
2017-07-15T12:43:26.350Z,1020.160
2017-07-15T12:46:55.560Z,1020.147
2017-07-15T12:49:42.852Z,1020.136
2017-07-15T12:53:23.073Z,1020.072
2017-07-15T12:56:09.606Z,1020.095
2017-07-15T12:59:04.739Z,1020.053
2017-07-15T13:02:33.721Z,1020.100
2017-07-15T13:05:54.866Z,1020.129
2017-07-15T13:08:42.025Z,1020.150
2017-07-15T13:11:37.065Z,1020.140
2017-07-15T13:17:27.390Z,1020.224
2017-07-15T13:20:22.442Z,1020.293
2017-07-15T13:23:17.800Z,1020.355
2017-07-15T13:26:12.937Z,1020.316
2017-07-15T13:29:08.108Z,1020.366
2017-07-15T13:35:49.183Z,1020.273
2017-07-15T13:39:41.397Z,1020.261
2017-07-15T13:43:00.694Z,1020.239
2017-07-15T13:46:21.528Z,1020.287
2017-07-15T13:49:08.489Z,1020.288
2017-07-15T13:52:03.315Z,1020.314
2017-07-15T13:54:58.462Z,1020.355
2017-07-15T13:59:35.341Z,1020.335
2017-07-15T14:03:05.726Z,1020.371
2017-07-15T14:05:51.989Z,1020.395
2017-07-15T14:08:46.837Z,1020.433
2017-07-15T14:11:41.870Z,1020.446
2017-07-15T14:14:37.151Z,1020.421
2017-07-15T14:17:43.664Z,1020.374
2017-07-15T14:22:27.018Z,1020.389
2017-07-15T14:25:12.089Z,1020.382
2017-07-15T14:29:03.281Z,1020.341
2017-07-15T14:32:34.481Z,1020.357
2017-07-15T14:35:20.865Z,1020.409
2017-07-15T14:38:15.611Z,1020.470
2017-07-15T14:41:10.760Z,1020.490
2017-07-15T14:45:36.383Z,1020.519
2017-07-15T14:48:21.694Z,1020.555
2017-07-15T14:51:16.512Z,1020.530
2017-07-15T14:54:11.821Z,1020.536
2017-07-15T14:59:45.201Z,1020.550
2017-07-15T15:02:41.227Z,1020.575
2017-07-15T15:05:31.177Z,1020.578
2017-07-15T15:08:26.166Z,1020.620
2017-07-15T15:11:21.330Z,1020.630
2017-07-15T15:15:12.995Z,1020.619
2017-07-15T15:17:59.080Z,1020.639
2017-07-15T15:27:18.194Z,1020.643
2017-07-15T15:31:21.398Z,1020.653
2017-07-15T15:37:34.777Z,1020.697
2017-07-15T15:40:21.941Z,1020.682
2017-07-15T15:44:58.379Z,1020.695
2017-07-15T15:51:40.968Z,1020.704
2017-07-15T16:00:21.439Z,1020.779
2017-07-15T16:21:26.069Z,1020.825
2017-07-15T16:24:15.540Z,1020.802
2017-07-15T16:27:10.172Z,1020.845
2017-07-15T16:31:24.195Z,1020.993
2017-07-15T16:35:39.959Z,1021.122
2017-07-15T16:41:19.761Z,1021.114
